Time;durP1;ratioP1;P1;durP2;ratioP2;P2;SDS_P1;SDS_P2;PMS_P1;PMS_P2;Temp;Humidity;BMP_temperature;BMP_pressure;BME280_temperature;BME280_humidity;BME280_pressure;Samples;Min_cycle;Max_cycle;Signal;HPM_P1;HPM_P2
2022/07/31 00:02:37;;;;;;;1.77;1.13;;;26.20;49.80;;;;;;10045496;28;20037;-68
2022/07/31 00:07:28;;;;;;;2.55;1.10;;;26.10;49.80;;;;;;10065016;28;20036;-68
2022/07/31 00:12:20;;;;;;;2.05;1.20;;;26.00;50.10;;;;;;10048966;28;20080;-69
2022/07/31 00:17:11;;;;;;;3.60;0.90;;;26.20;49.90;;;;;;10062409;28;20179;-68
2022/07/31 00:22:01;;;;;;;1.30;1.10;;;26.10;50.00;;;;;;10045131;28;20336;-70
2022/07/31 00:26:52;;;;;;;2.05;1.10;;;26.10;50.10;;;;;;10057535;28;20037;-69
2022/07/31 00:31:43;;;;;;;1.85;1.40;;;26.10;50.10;;;;;;10070440;28;20051;-68
2022/07/31 00:36:33;;;;;;;1.30;1.00;;;25.60;50.60;;;;;;10077629;28;20064;-67
2022/07/31 00:41:24;;;;;;;1.83;1.30;;;25.60;50.80;;;;;;10071527;28;20523;-68
2022/07/31 00:46:15;;;;;;;1.92;1.33;;;25.60;50.70;;;;;;10079572;28;20104;-68
2022/07/31 00:51:06;;;;;;;2.25;1.30;;;25.80;50.90;;;;;;10053744;28;20372;-68
2022/07/31 00:55:56;;;;;;;1.70;1.02;;;25.80;50.60;;;;;;10063001;28;20241;-68
2022/07/31 01:00:47;;;;;;;1.75;1.38;;;25.70;50.90;;;;;;10075051;28;20030;-67
2022/07/31 01:05:38;;;;;;;3.90;1.27;;;25.70;50.80;;;;;;10066816;28;20029;-67
2022/07/31 01:10:38;;;;;;;2.03;1.40;;;25.80;50.60;;;;;;10054377;28;20044;-67
2022/07/31 01:15:30;;;;;;;2.85;1.48;;;25.90;50.70;;;;;;10081337;28;20226;-68
2022/07/31 01:20:20;;;;;;;2.60;1.27;;;25.80;50.60;;;;;;10063442;28;20029;-67
2022/07/31 01:25:35;;;;;;;3.83;1.38;;;25.80;50.70;;;;;;10074090;28;20025;-67
2022/07/31 01:30:35;;;;;;;2.03;1.23;;;25.40;51.10;;;;;;10067205;28;20259;-67
2022/07/31 01:35:31;;;;;;;4.25;1.50;;;25.30;51.10;;;;;;10064063;28;20013;-68
2022/07/31 01:40:28;;;;;;;2.53;1.38;;;25.40;51.10;;;;;;10065656;28;20261;-68
2022/07/31 01:45:21;;;;;;;1.27;1.13;;;25.50;50.90;;;;;;10069366;28;20026;-67
2022/07/31 01:50:12;;;;;;;3.17;1.45;;;25.60;51.10;;;;;;10067432;28;20042;-67
2022/07/31 01:55:04;;;;;;;1.70;1.40;;;25.70;51.10;;;;;;10079052;28;20296;-67
2022/07/31 01:59:58;;;;;;;1.30;1.20;;;25.50;51.30;;;;;;10061999;28;20042;-67
2022/07/31 02:04:50;;;;;;;3.63;1.63;;;25.30;51.50;;;;;;10068428;28;20556;-67
2022/07/31 02:09:43;;;;;;;4.50;1.20;;;25.30;51.50;;;;;;10059755;28;20232;-67
2022/07/31 02:14:34;;;;;;;2.35;1.15;;;25.30;51.60;;;;;;10063111;28;20073;-66
2022/07/31 02:19:27;;;;;;;1.42;1.00;;;25.10;51.70;;;;;;10060253;28;20164;-67
2022/07/31 02:24:17;;;;;;;1.70;1.20;;;25.00;51.90;;;;;;10051824;28;20025;-67
2022/07/31 02:29:11;;;;;;;2.20;1.20;;;25.10;51.90;;;;;;10063704;28;20044;-67
2022/07/31 02:34:02;;;;;;;1.43;1.10;;;25.10;51.70;;;;;;10065678;28;20029;-67
2022/07/31 02:38:55;;;;;;;1.75;1.25;;;25.00;51.80;;;;;;10076836;28;20029;-67
2022/07/31 02:43:46;;;;;;;1.95;1.38;;;24.70;52.30;;;;;;10064216;28;20033;-67
2022/07/31 02:48:38;;;;;;;1.10;1.00;;;24.40;53.10;;;;;;10070326;28;20212;-67
2022/07/31 02:53:29;;;;;;;1.63;1.20;;;24.30;53.20;;;;;;10066987;28;20237;-68
2022/07/31 02:58:20;;;;;;;2.65;1.60;;;24.10;53.70;;;;;;10066233;28;20033;-70
2022/07/31 03:03:12;;;;;;;2.38;1.45;;;23.80;54.20;;;;;;10067259;28;20098;-68
2022/07/31 03:08:03;;;;;;;2.33;1.30;;;23.90;54.40;;;;;;10055662;28;20309;-68
2022/07/31 03:12:54;;;;;;;2.28;1.27;;;23.80;54.80;;;;;;10072835;28;20359;-67
2022/07/31 03:17:47;;;;;;;1.58;1.40;;;23.90;54.90;;;;;;10070581;28;20071;-67
2022/07/31 03:22:41;;;;;;;2.55;1.40;;;23.80;56.10;;;;;;10066349;28;20030;-67
2022/07/31 03:27:32;;;;;;;2.00;1.37;;;23.70;55.80;;;;;;10065850;28;20037;-67
2022/07/31 03:32:22;;;;;;;1.95;1.60;;;23.90;55.90;;;;;;10058238;28;20046;-67
2022/07/31 03:37:13;;;;;;;1.73;1.42;;;23.80;56.20;;;;;;10057725;28;20059;-67
2022/07/31 03:42:05;;;;;;;3.45;1.70;;;23.80;56.80;;;;;;10045317;28;20045;-67
2022/07/31 03:46:56;;;;;;;2.15;1.70;;;23.70;57.20;;;;;;10059132;28;20213;-67
2022/07/31 03:51:47;;;;;;;2.60;1.42;;;23.60;57.50;;;;;;10073500;28;20047;-67
2022/07/31 03:56:39;;;;;;;1.92;1.40;;;23.40;58.00;;;;;;10064086;28;20026;-69
2022/07/31 04:01:31;;;;;;;3.78;1.75;;;23.20;58.70;;;;;;10059995;28;20021;-66
2022/07/31 04:06:21;;;;;;;2.70;1.60;;;23.10;59.20;;;;;;10065528;28;20022;-68
2022/07/31 04:11:12;;;;;;;3.03;1.45;;;22.90;59.70;;;;;;10054357;28;20037;-68
2022/07/31 04:16:03;;;;;;;3.00;1.58;;;22.70;60.10;;;;;;10072599;28;20037;-68
2022/07/31 04:20:54;;;;;;;2.60;1.55;;;22.70;60.30;;;;;;10066706;28;20164;-68
2022/07/31 04:25:44;;;;;;;1.50;1.40;;;22.90;60.10;;;;;;10052747;28;20026;-68
2022/07/31 04:30:36;;;;;;;2.85;1.65;;;23.00;60.00;;;;;;10065116;28;20315;-67
2022/07/31 04:35:27;;;;;;;3.47;1.70;;;23.10;60.10;;;;;;10069793;28;20108;-67
2022/07/31 04:40:17;;;;;;;1.80;1.42;;;23.20;60.00;;;;;;10066449;28;20072;-68
2022/07/31 04:45:08;;;;;;;2.17;1.80;;;23.10;60.30;;;;;;10055548;28;20014;-67
2022/07/31 04:49:59;;;;;;;2.95;1.73;;;23.20;60.10;;;;;;10059955;28;20249;-67
2022/07/31 04:54:49;;;;;;;3.50;1.83;;;23.10;60.20;;;;;;10068569;28;20049;-67
2022/07/31 04:59:40;;;;;;;2.00;1.80;;;23.30;60.20;;;;;;10064816;28;20030;-68
2022/07/31 05:04:31;;;;;;;2.65;1.77;;;23.40;60.30;;;;;;10069813;28;20018;-67
2022/07/31 05:09:23;;;;;;;3.53;2.60;;;23.40;60.70;;;;;;10061808;28;20049;-68
2022/07/31 05:14:15;;;;;;;3.95;2.17;;;23.20;61.50;;;;;;10067364;28;20041;-69
2022/07/31 05:19:06;;;;;;;1.95;1.80;;;23.20;61.90;;;;;;10071754;28;20150;-69
2022/07/31 05:23:58;;;;;;;2.95;1.80;;;23.20;62.50;;;;;;10062093;28;20332;-68
2022/07/31 05:28:50;;;;;;;4.00;2.00;;;23.00;63.20;;;;;;10066563;28;20080;-67
2022/07/31 05:33:42;;;;;;;2.10;1.90;;;23.20;63.60;;;;;;10059078;28;20123;-67
2022/07/31 05:38:33;;;;;;;4.35;2.05;;;23.40;63.60;;;;;;10063197;28;20026;-68
2022/07/31 05:43:23;;;;;;;3.67;2.22;;;23.60;63.70;;;;;;10080676;28;20093;-67
2022/07/31 05:48:15;;;;;;;2.50;2.05;;;23.60;63.80;;;;;;10058214;28;20027;-68
2022/07/31 05:53:06;;;;;;;2.22;1.85;;;23.50;64.40;;;;;;10061411;28;20521;-68
2022/07/31 05:57:56;;;;;;;3.53;2.20;;;23.40;64.50;;;;;;10083021;28;20029;-68
2022/07/31 06:02:47;;;;;;;3.17;1.75;;;23.20;64.80;;;;;;10074280;28;20032;-68
2022/07/31 06:07:38;;;;;;;2.28;1.85;;;23.40;64.70;;;;;;10058090;28;20038;-67
2022/07/31 06:12:28;;;;;;;4.13;2.53;;;23.30;64.70;;;;;;10056412;28;20078;-67
2022/07/31 06:17:19;;;;;;;2.55;2.00;;;23.60;64.50;;;;;;10053346;28;20382;-68
2022/07/31 06:22:10;;;;;;;4.57;2.47;;;23.50;64.50;;;;;;10050825;28;20064;-68
2022/07/31 06:27:01;;;;;;;2.35;1.77;;;23.30;65.10;;;;;;10068144;28;20278;-67
2022/07/31 06:31:52;;;;;;;3.08;2.05;;;23.50;64.80;;;;;;10061005;28;20045;-68
2022/07/31 06:36:43;;;;;;;3.53;2.30;;;23.60;64.50;;;;;;10059244;28;20037;-68
2022/07/31 06:41:43;;;;;;;2.25;2.05;;;23.60;64.40;;;;;;10055346;28;20037;-68
2022/07/31 06:46:33;;;;;;;2.45;1.98;;;23.80;64.10;;;;;;10067855;28;20262;-67
2022/07/31 06:51:24;;;;;;;3.72;1.90;;;24.00;63.90;;;;;;10059034;28;20134;-68
2022/07/31 06:56:15;;;;;;;4.82;2.03;;;24.10;63.70;;;;;;10070334;28;20151;-67
2022/07/31 07:01:05;;;;;;;5.30;1.90;;;24.20;63.60;;;;;;10059082;28;20057;-68
2022/07/31 07:05:56;;;;;;;4.25;2.30;;;24.50;63.40;;;;;;10062600;28;20056;-67
2022/07/31 07:10:46;;;;;;;2.50;2.03;;;24.50;63.30;;;;;;10050401;28;20076;-68
2022/07/31 07:15:37;;;;;;;3.20;2.05;;;24.70;63.10;;;;;;10054837;28;20245;-67
2022/07/31 07:20:28;;;;;;;5.13;2.50;;;24.80;63.20;;;;;;10064442;28;20017;-68
2022/07/31 07:25:19;;;;;;;2.75;2.30;;;24.90;63.20;;;;;;10055498;28;20316;-67
2022/07/31 07:30:10;;;;;;;2.80;2.30;;;25.10;63.20;;;;;;10059145;28;20038;-68
2022/07/31 07:35:02;;;;;;;4.50;2.15;;;25.20;63.00;;;;;;10065366;28;20065;-69
2022/07/31 07:39:53;;;;;;;3.05;1.98;;;25.30;63.10;;;;;;10066533;28;20024;-67
2022/07/31 07:44:44;;;;;;;2.42;1.80;;;25.40;63.00;;;;;;10073040;28;20264;-67
2022/07/31 07:49:34;;;;;;;3.40;1.98;;;25.60;62.80;;;;;;10065783;28;20041;-67
2022/07/31 07:54:25;;;;;;;3.50;2.30;;;25.80;62.60;;;;;;10064967;28;20010;-67
2022/07/31 07:59:16;;;;;;;4.60;2.13;;;25.90;62.40;;;;;;10059844;28;20297;-68
2022/07/31 08:04:06;;;;;;;4.05;2.15;;;25.90;62.50;;;;;;10065877;28;20018;-67
2022/07/31 08:08:57;;;;;;;3.08;1.90;;;25.80;62.50;;;;;;10052267;28;20038;-68
2022/07/31 08:13:48;;;;;;;1.70;1.55;;;26.00;62.30;;;;;;10061355;28;20260;-67
2022/07/31 08:18:39;;;;;;;3.08;2.28;;;26.20;61.90;;;;;;10064871;28;20028;-67
2022/07/31 08:23:29;;;;;;;3.15;1.80;;;26.20;61.80;;;;;;10067582;28;20093;-67
2022/07/31 08:28:23;;;;;;;4.30;1.92;;;26.30;61.50;;;;;;10053604;28;20366;-67
2022/07/31 08:33:14;;;;;;;3.83;1.37;;;26.40;61.10;;;;;;10056254;28;20041;-68
2022/07/31 08:38:04;;;;;;;3.75;2.22;;;26.70;60.70;;;;;;10057534;28;20343;-69
2022/07/31 08:42:55;;;;;;;2.28;1.60;;;26.90;60.40;;;;;;10058068;28;20053;-68
2022/07/31 08:47:47;;;;;;;3.08;1.95;;;27.10;60.10;;;;;;10064635;28;20056;-68
2022/07/31 08:52:41;;;;;;;5.93;1.92;;;27.50;59.60;;;;;;10051747;28;20017;-70
2022/07/31 08:57:32;;;;;;;3.78;1.92;;;27.60;59.20;;;;;;10069401;28;20058;-67
2022/07/31 09:02:22;;;;;;;3.53;1.92;;;27.70;59.00;;;;;;10060723;28;20033;-68
2022/07/31 09:07:14;;;;;;;3.22;1.70;;;27.70;58.90;;;;;;10046922;28;20025;-67
2022/07/31 09:12:05;;;;;;;2.33;1.75;;;27.80;58.60;;;;;;10067251;28;20051;-67
2022/07/31 09:16:56;;;;;;;3.10;1.48;;;27.90;58.30;;;;;;10066537;28;20099;-67
2022/07/31 09:21:48;;;;;;;2.88;1.83;;;28.10;57.90;;;;;;10076956;28;20088;-68
2022/07/31 09:26:43;;;;;;;2.45;1.77;;;28.10;57.60;;;;;;10057064;28;20033;-68
2022/07/31 09:31:34;;;;;;;2.28;1.55;;;28.60;57.20;;;;;;10076137;28;20033;-68
2022/07/31 09:36:25;;;;;;;2.10;1.90;;;28.90;56.80;;;;;;10056927;28;20065;-68
2022/07/31 09:41:19;;;;;;;4.15;2.00;;;29.30;56.50;;;;;;10069828;28;20067;-67
2022/07/31 09:46:10;;;;;;;2.33;1.80;;;29.60;56.00;;;;;;10066365;28;20316;-68
2022/07/31 09:51:05;;;;;;;4.25;2.13;;;29.40;55.80;;;;;;10055026;28;20069;-68
2022/07/31 09:55:56;;;;;;;3.15;1.70;;;29.30;55.50;;;;;;10069831;28;20378;-68
2022/07/31 10:00:51;;;;;;;4.03;1.58;;;29.40;55.20;;;;;;10081018;28;20071;-70
2022/07/31 10:05:42;;;;;;;3.50;1.70;;;29.60;54.80;;;;;;10046309;28;20061;-69
2022/07/31 10:10:34;;;;;;;2.95;1.58;;;29.80;54.40;;;;;;10061950;28;20351;-70
2022/07/31 10:15:27;;;;;;;2.35;1.23;;;30.30;54.10;;;;;;10065929;28;20049;-68
2022/07/31 10:20:22;;;;;;;1.63;1.38;;;30.50;53.60;;;;;;10062057;28;20547;-68
2022/07/31 10:25:20;;;;;;;4.15;2.47;;;30.40;53.60;;;;;;10062919;28;20339;-67
2022/07/31 10:30:12;;;;;;;6.32;1.98;;;30.20;53.20;;;;;;10059087;28;20068;-68
2022/07/31 10:35:05;;;;;;;5.63;2.10;;;30.20;53.00;;;;;;10062775;28;20061;-68
2022/07/31 10:40:18;;;;;;;3.60;1.58;;;30.20;52.80;;;;;;10045224;28;20033;-68
2022/07/31 10:45:15;;;;;;;3.55;1.60;;;30.40;52.70;;;;;;10067332;28;20049;-69
2022/07/31 10:50:06;;;;;;;1.95;1.75;;;30.80;52.30;;;;;;10061979;28;20096;-68
2022/07/31 10:54:59;;;;;;;2.78;1.65;;;30.80;52.10;;;;;;10055624;28;20092;-68
2022/07/31 10:59:50;;;;;;;1.60;1.33;;;30.70;52.00;;;;;;10072818;28;20044;-68
2022/07/31 11:04:41;;;;;;;6.88;1.90;;;30.60;52.00;;;;;;10053938;28;20176;-67
2022/07/31 11:09:31;;;;;;;4.10;1.58;;;30.80;51.70;;;;;;10065017;28;20065;-70
2022/07/31 11:14:38;;;;;;;5.55;2.33;;;30.70;51.40;;;;;;10058515;28;20346;-68
2022/07/31 11:19:42;;;;;;;1.77;1.58;;;30.80;51.00;;;;;;10066128;28;20036;-65
2022/07/31 11:24:33;;;;;;;2.38;1.73;;;31.00;50.90;;;;;;10064088;28;20028;-67
2022/07/31 11:29:36;;;;;;;3.13;1.70;;;31.00;50.90;;;;;;10054120;28;20036;-68
2022/07/31 11:34:26;;;;;;;2.90;1.65;;;31.30;50.50;;;;;;10057172;28;20040;-67
2022/07/31 11:39:17;;;;;;;2.05;1.33;;;31.60;50.30;;;;;;10074167;28;20043;-68
2022/07/31 11:44:08;;;;;;;3.30;1.88;;;31.50;50.30;;;;;;10069241;28;20025;-68
2022/07/31 11:49:00;;;;;;;2.10;1.33;;;31.60;50.20;;;;;;10060281;28;20503;-67
2022/07/31 11:53:54;;;;;;;3.50;1.70;;;31.50;50.00;;;;;;10069443;28;20027;-68
2022/07/31 11:58:49;;;;;;;1.90;1.73;;;31.90;49.90;;;;;;10058598;28;20198;-68
2022/07/31 12:03:40;;;;;;;2.13;1.70;;;32.30;49.60;;;;;;10074719;28;20029;-68
2022/07/31 12:08:33;;;;;;;4.18;1.67;;;32.10;49.40;;;;;;10062738;28;20020;-68
2022/07/31 12:13:25;;;;;;;3.57;1.77;;;31.70;49.40;;;;;;10060456;28;20271;-68
2022/07/31 12:18:16;;;;;;;8.32;2.85;;;31.70;49.20;;;;;;10063347;28;20066;-67
2022/07/31 12:23:07;;;;;;;2.58;1.70;;;32.10;48.70;;;;;;10066815;28;20048;-67
2022/07/31 12:27:57;;;;;;;3.13;1.60;;;32.40;48.60;;;;;;10077505;28;20355;-67
2022/07/31 12:32:48;;;;;;;2.40;1.40;;;32.10;48.60;;;;;;10070122;28;20088;-68
2022/07/31 12:37:44;;;;;;;3.63;1.90;;;31.90;48.70;;;;;;10067236;28;20048;-67
2022/07/31 12:42:37;;;;;;;1.70;1.60;;;32.30;48.80;;;;;;10075647;28;20209;-67
2022/07/31 12:47:33;;;;;;;3.40;1.80;;;32.90;48.50;;;;;;10066944;28;20237;-68
2022/07/31 12:52:26;;;;;;;4.47;1.70;;;33.50;48.40;;;;;;10072923;28;20100;-69
2022/07/31 12:57:17;;;;;;;3.20;1.50;;;34.20;48.30;;;;;;10084675;28;20025;-68
2022/07/31 13:02:08;;;;;;;1.37;1.20;;;34.70;48.30;;;;;;10075120;28;20346;-67
2022/07/31 13:06:59;;;;;;;4.68;1.48;;;35.40;47.70;;;;;;10067021;28;20021;-67
2022/07/31 13:11:50;;;;;;;3.22;1.45;;;36.50;46.90;;;;;;10061653;28;20073;-68
2022/07/31 13:16:41;;;;;;;2.97;1.25;;;36.90;45.70;;;;;;10062946;28;20428;-67
2022/07/31 13:21:31;;;;;;;1.48;1.30;;;37.50;44.80;;;;;;10061576;28;20041;-66
2022/07/31 13:26:22;;;;;;;2.17;1.45;;;36.30;44.60;;;;;;10058095;28;20057;-68
2022/07/31 13:31:12;;;;;;;4.38;1.90;;;37.70;43.50;;;;;;10065196;28;20029;-67
2022/07/31 13:36:04;;;;;;;2.90;1.50;;;38.40;42.80;;;;;;10070212;28;20329;-66
2022/07/31 13:46:04;;;;;;;4.25;1.52;;;39.80;42.00;;;;;;10067418;28;20060;-66
2022/07/31 13:50:55;;;;;;;3.60;1.75;;;41.40;41.20;;;;;;10058815;28;20274;-66
2022/07/31 13:55:45;;;;;;;2.50;1.60;;;41.90;40.70;;;;;;10071320;28;20049;-67
2022/07/31 14:00:36;;;;;;;2.95;1.42;;;39.90;40.50;;;;;;10068385;28;20029;-67
2022/07/31 14:05:27;;;;;;;2.38;1.30;;;38.90;41.90;;;;;;10059477;28;20033;-66
2022/07/31 14:10:18;;;;;;;1.80;1.40;;;39.60;40.30;;;;;;10066478;28;20045;-66
2022/07/31 14:15:09;;;;;;;4.95;1.60;;;40.20;40.40;;;;;;10062426;28;20052;-68
2022/07/31 14:19:59;;;;;;;1.95;1.52;;;38.80;40.70;;;;;;10046639;28;20096;-66
2022/07/31 14:24:50;;;;;;;3.72;1.38;;;37.90;41.60;;;;;;10068798;28;20140;-67
2022/07/31 14:29:41;;;;;;;1.48;1.35;;;40.30;40.20;;;;;;10084077;28;20049;-67
2022/07/31 14:34:31;;;;;;;3.95;1.85;;;41.40;39.60;;;;;;10071368;28;20044;-65
2022/07/31 14:39:22;;;;;;;2.53;1.48;;;41.30;39.40;;;;;;10076204;28;20034;-67
2022/07/31 14:44:15;;;;;;;3.10;1.30;;;41.00;38.80;;;;;;10057195;28;20044;-67
2022/07/31 14:49:07;;;;;;;2.72;1.55;;;38.10;39.80;;;;;;10060130;28;20414;-67
2022/07/31 14:53:58;;;;;;;3.28;1.48;;;36.20;40.80;;;;;;10072042;28;20088;-69
2022/07/31 14:58:49;;;;;;;3.20;1.45;;;36.40;40.70;;;;;;10065929;28;20029;-66
2022/07/31 15:03:40;;;;;;;2.20;1.75;;;36.10;40.50;;;;;;10069501;28;20032;-67
2022/07/31 15:08:30;;;;;;;;;;;38.30;39.50;;;;;;10051599;28;20042;-67
2022/07/31 15:13:21;;;;;;;;;;;40.20;38.50;;;;;;10063950;28;19917;-67
2022/07/31 15:18:11;;;;;;;1.93;1.50;;;39.60;38.70;;;;;;10058130;28;19936;-68
2022/07/31 15:23:02;;;;;;;3.70;1.67;;;37.40;40.40;;;;;;10052185;28;20069;-67
2022/07/31 15:27:53;;;;;;;1.33;1.03;;;37.10;40.40;;;;;;10060996;28;20048;-67
2022/07/31 15:32:44;;;;;;;1.48;1.20;;;36.70;40.30;;;;;;10064907;28;20388;-67
2022/07/31 15:37:36;;;;;;;4.53;1.48;;;36.40;40.50;;;;;;10062809;28;20029;-66
2022/07/31 15:42:27;;;;;;;3.80;1.20;;;37.40;39.80;;;;;;10053852;28;20056;-67
2022/07/31 15:47:18;;;;;;;4.22;1.67;;;36.30;40.30;;;;;;10061789;28;20029;-66
2022/07/31 15:52:08;;;;;;;2.60;1.60;;;35.50;40.80;;;;;;10055067;28;20193;-66
2022/07/31 15:56:59;;;;;;;5.13;2.00;;;34.90;41.00;;;;;;10053901;28;20228;-66
2022/07/31 16:01:50;;;;;;;1.88;1.67;;;34.80;41.20;;;;;;10072187;28;20030;-69
2022/07/31 16:06:42;;;;;;;2.97;1.55;;;34.80;41.50;;;;;;10083898;28;20255;-61
2022/07/31 16:11:33;;;;;;;3.38;1.90;;;35.20;41.50;;;;;;10066090;28;20038;-63
2022/07/31 16:16:23;;;;;;;1.45;1.35;;;34.50;41.60;;;;;;10057064;28;20037;-65
2022/07/31 16:21:14;;;;;;;2.35;1.40;;;34.50;41.80;;;;;;10048060;28;20030;-64
2022/07/31 16:26:05;;;;;;;2.10;1.90;;;34.50;41.80;;;;;;10057357;28;20022;-65
2022/07/31 16:30:56;;;;;;;1.92;1.40;;;35.40;41.30;;;;;;10061159;28;20410;-64
2022/07/31 16:35:47;;;;;;;1.40;1.30;;;38.90;40.10;;;;;;10052054;28;20020;-65
2022/07/31 16:40:38;;;;;;;2.92;1.55;;;40.20;39.10;;;;;;10048781;28;20249;-66
2022/07/31 16:45:29;;;;;;;3.28;2.15;;;37.40;39.80;;;;;;10055995;28;20034;-67
2022/07/31 16:50:20;;;;;;;3.47;2.00;;;36.20;40.90;;;;;;10054849;28;20029;-65
2022/07/31 16:55:10;;;;;;;3.08;1.42;;;37.60;40.20;;;;;;10053679;28;20013;-65
2022/07/31 17:00:01;;;;;;;4.07;2.33;;;36.90;39.90;;;;;;10055727;28;20391;-65
2022/07/31 17:04:52;;;;;;;1.20;1.10;;;41.40;37.50;;;;;;10059156;28;20025;-67
2022/07/31 17:09:43;;;;;;;;;;;43.80;35.70;;;;;;10065351;28;20292;-69
2022/07/31 17:14:33;;;;;;;2.63;1.50;;;44.80;34.90;;;;;;10058404;28;19917;-68
2022/07/31 17:19:27;;;;;;;4.28;1.70;;;44.00;34.80;;;;;;10058140;28;20044;-67
2022/07/31 17:24:17;;;;;;;3.58;1.70;;;43.80;33.70;;;;;;10053944;28;20489;-67
2022/07/31 17:29:08;;;;;;;2.45;2.03;;;43.30;33.30;;;;;;10053126;28;20049;-64
2022/07/31 17:33:59;;;;;;;3.05;1.30;;;43.60;32.60;;;;;;10063939;28;20034;-64
2022/07/31 17:38:50;;;;;;;3.60;1.40;;;42.30;32.30;;;;;;10058821;28;20113;-64
2022/07/31 17:43:40;;;;;;;2.13;1.45;;;37.50;34.70;;;;;;10058649;28;20171;-62
2022/07/31 17:48:31;;;;;;;2.55;1.38;;;35.90;35.50;;;;;;10062717;28;20084;-63
2022/07/31 17:53:22;;;;;;;6.35;2.17;;;36.40;34.70;;;;;;10044618;28;20680;-64
2022/07/31 17:58:12;;;;;;;4.53;1.52;;;34.80;35.80;;;;;;10055177;28;20108;-63
2022/07/31 18:03:03;;;;;;;1.30;1.20;;;33.80;36.20;;;;;;10044780;28;20480;-65
2022/07/31 18:07:54;;;;;;;3.05;1.30;;;33.30;36.70;;;;;;10054399;28;20181;-63
2022/07/31 18:12:44;;;;;;;2.45;1.13;;;33.00;37.30;;;;;;10048779;28;20071;-65
2022/07/31 18:17:40;;;;;;;3.97;1.52;;;32.80;37.70;;;;;;10052786;28;20396;-65
2022/07/31 18:22:31;;;;;;;3.40;1.23;;;32.50;38.70;;;;;;10049730;28;20029;-64
2022/07/31 18:27:21;;;;;;;3.47;1.70;;;32.30;39.20;;;;;;10050525;28;20072;-64
2022/07/31 18:32:12;;;;;;;2.65;1.23;;;32.10;39.70;;;;;;10056693;28;20558;-65
2022/07/31 18:37:03;;;;;;;1.83;1.10;;;31.90;40.10;;;;;;10049124;28;20030;-64
2022/07/31 18:41:53;;;;;;;3.47;1.10;;;31.60;40.90;;;;;;10050557;28;20025;-64
2022/07/31 18:46:44;;;;;;;4.03;1.80;;;31.50;41.30;;;;;;10035600;28;20029;-65
2022/07/31 18:51:35;;;;;;;4.75;1.70;;;31.40;41.60;;;;;;10049633;28;20030;-64
2022/07/31 18:56:25;;;;;;;2.25;1.65;;;31.30;42.10;;;;;;10046285;28;20033;-66
2022/07/31 19:01:16;;;;;;;2.13;1.20;;;31.20;42.60;;;;;;10040392;28;20215;-64
2022/07/31 19:06:07;;;;;;;4.93;1.60;;;31.00;42.90;;;;;;10043542;28;20391;-63
2022/07/31 19:10:58;;;;;;;3.63;1.58;;;30.80;43.30;;;;;;10041463;28;20037;-63
2022/07/31 19:15:51;;;;;;;5.35;1.42;;;30.70;43.70;;;;;;10036476;28;20046;-63
2022/07/31 19:20:45;;;;;;;2.97;1.50;;;30.70;44.00;;;;;;10047522;28;20026;-63
2022/07/31 19:25:36;;;;;;;1.75;1.35;;;30.50;44.20;;;;;;10031940;28;20014;-63
2022/07/31 19:30:27;;;;;;;1.90;1.10;;;30.50;44.40;;;;;;10064311;28;20042;-62
2022/07/31 19:35:17;;;;;;;2.05;1.20;;;30.30;44.80;;;;;;10022477;28;20488;-63
2022/07/31 19:40:09;;;;;;;3.28;1.65;;;30.30;44.90;;;;;;10029200;28;20407;-62
2022/07/31 19:45:00;;;;;;;4.22;1.92;;;30.20;45.10;;;;;;10040275;28;20022;-63
2022/07/31 19:49:50;;;;;;;1.75;1.02;;;30.10;45.50;;;;;;10038977;28;20038;-63
2022/07/31 19:54:41;;;;;;;3.70;1.48;;;30.00;45.70;;;;;;10037462;28;20574;-63
2022/07/31 19:59:32;;;;;;;3.90;1.50;;;29.70;46.20;;;;;;10039399;28;20037;-64
2022/07/31 20:04:23;;;;;;;3.38;1.73;;;29.70;46.70;;;;;;10034890;28;20511;-63
2022/07/31 20:09:13;;;;;;;2.17;1.83;;;29.60;47.00;;;;;;10028544;28;20036;-63
2022/07/31 20:14:04;;;;;;;1.73;1.35;;;29.60;47.10;;;;;;10045096;28;20369;-63
2022/07/31 20:18:54;;;;;;;1.88;1.58;;;29.40;47.50;;;;;;10066969;28;20459;-63
2022/07/31 20:23:45;;;;;;;1.92;1.02;;;29.40;47.80;;;;;;10034321;28;20022;-63
2022/07/31 20:28:38;;;;;;;2.38;1.38;;;29.40;48.00;;;;;;10036968;28;20037;-63
2022/07/31 20:33:29;;;;;;;1.93;1.70;;;29.40;48.00;;;;;;10034914;28;20462;-62
2022/07/31 20:38:21;;;;;;;3.40;1.23;;;29.10;48.20;;;;;;10037627;28;20194;-62
2022/07/31 20:43:15;;;;;;;5.95;1.35;;;29.20;48.40;;;;;;10055196;28;20032;-63
2022/07/31 20:48:06;;;;;;;3.97;1.50;;;29.00;48.70;;;;;;10060651;28;20096;-62
2022/07/31 20:52:56;;;;;;;1.90;1.40;;;28.80;48.80;;;;;;10056773;28;20108;-63
2022/07/31 20:57:47;;;;;;;7.40;2.97;;;28.80;49.20;;;;;;10078546;28;20041;-63
2022/07/31 21:02:38;;;;;;;2.42;1.20;;;28.50;49.60;;;;;;10057625;28;20068;-64
2022/07/31 21:07:29;;;;;;;4.10;1.40;;;28.30;49.90;;;;;;10078749;28;20320;-64
2022/07/31 21:12:19;;;;;;;5.75;2.20;;;28.30;50.00;;;;;;10071034;28;20062;-65
2022/07/31 21:17:10;;;;;;;2.88;1.60;;;28.20;50.70;;;;;;10072281;28;20069;-65
2022/07/31 21:22:01;;;;;;;1.95;1.30;;;28.20;50.20;;;;;;10075354;28;20029;-64
2022/07/31 21:26:54;;;;;;;3.92;1.88;;;28.10;50.10;;;;;;10062496;28;20358;-65
2022/07/31 21:31:45;;;;;;;3.30;2.00;;;28.10;50.20;;;;;;10083437;28;20115;-63
2022/07/31 21:36:36;;;;;;;2.72;1.70;;;28.20;49.90;;;;;;10082323;28;20732;-63
2022/07/31 21:41:27;;;;;;;2.17;1.70;;;28.20;50.00;;;;;;10057479;28;20033;-65
2022/07/31 21:46:21;;;;;;;2.63;1.60;;;28.10;50.20;;;;;;10048753;28;20036;-64
2022/07/31 21:51:15;;;;;;;5.57;3.37;;;28.00;50.20;;;;;;10074659;28;20067;-64
2022/07/31 21:56:09;;;;;;;3.58;1.70;;;27.90;50.40;;;;;;10075815;28;20030;-62
2022/07/31 22:00:59;;;;;;;2.40;1.63;;;28.00;50.60;;;;;;10072902;28;20063;-63
2022/07/31 22:10:59;;;;;;;2.30;1.65;;;28.00;50.20;;;;;;10061927;28;20328;-65
2022/07/31 22:15:50;;;;;;;4.28;1.80;;;27.90;50.50;;;;;;10080857;28;20298;-65
2022/07/31 22:20:42;;;;;;;2.33;1.95;;;28.00;50.30;;;;;;10048017;28;20329;-65
2022/07/31 22:25:32;;;;;;;4.13;1.83;;;27.90;50.20;;;;;;10063533;28;20030;-65
2022/07/31 22:30:25;;;;;;;2.05;1.50;;;28.10;50.40;;;;;;10053175;28;20080;-66
2022/07/31 22:35:16;;;;;;;4.55;2.10;;;28.10;50.40;;;;;;10048270;28;20393;-66
2022/07/31 22:40:08;;;;;;;5.13;2.00;;;28.00;50.50;;;;;;10058511;28;20093;-66
2022/07/31 22:44:59;;;;;;;6.10;1.90;;;27.80;50.90;;;;;;10067639;28;20021;-65
2022/07/31 22:49:50;;;;;;;4.07;1.65;;;28.00;50.80;;;;;;10054189;28;20092;-65
2022/07/31 22:54:44;;;;;;;2.53;1.75;;;27.80;51.00;;;;;;10071924;28;20324;-66
2022/07/31 22:59:34;;;;;;;3.87;2.13;;;27.80;51.20;;;;;;10082503;28;20041;-65
2022/07/31 23:04:25;;;;;;;1.90;1.70;;;27.50;51.70;;;;;;10066954;28;20021;-64
2022/07/31 23:09:16;;;;;;;2.63;1.90;;;27.40;52.10;;;;;;10055200;28;20243;-65
2022/07/31 23:14:07;;;;;;;4.07;2.10;;;27.20;52.30;;;;;;10061883;28;20041;-64
2022/07/31 23:18:57;;;;;;;2.70;2.08;;;27.30;52.40;;;;;;10057836;28;20029;-64
2022/07/31 23:23:48;;;;;;;2.83;2.00;;;27.20;52.60;;;;;;10051578;28;20025;-65
2022/07/31 23:28:39;;;;;;;2.38;2.03;;;27.10;52.90;;;;;;10082716;28;20042;-64
2022/07/31 23:33:30;;;;;;;3.30;2.00;;;27.00;53.20;;;;;;10070945;28;20291;-63
2022/07/31 23:38:20;;;;;;;2.97;1.77;;;26.70;53.60;;;;;;10065452;28;20063;-65
2022/07/31 23:43:11;;;;;;;3.78;1.80;;;26.70;53.90;;;;;;10075696;28;20067;-64
2022/07/31 23:48:03;;;;;;;3.92;1.80;;;26.60;54.40;;;;;;10055784;28;20305;-65
2022/07/31 23:52:53;;;;;;;5.03;2.08;;;26.60;54.60;;;;;;10069965;28;20072;-64
2022/07/31 23:57:44;;;;;;;2.60;1.80;;;26.60;54.80;;;;;;10074520;28;20029;-65
